Pasadena, CA

1:25 PM PST on March 03, 2015 (GMT -0800)
North Wilson Avenue | Change Station
CLOSE
Current Station
Personal Weather Station
Location: Pasadena, CA
Elevation: 865 ft
Nearby Weather Stations

Elev 865 ft 34.16 °N, 118.13 °W | Updated 48 seconds ago

Clear
Clear
67.4 °F
Feels Like 67.4 °F
N
0.0
Wind Variable Wind from North

Today
High -- | Low -- °F
--% Chance of Precip.
Yesterday
High -- | Low -- °F
Precip. -- in
6:19 AM 5:50 PM
Waxing Gibbous, 97% visible
Pressure 29.88 in
Visibility 10.0 miles
Clouds Clear
Dew Point 41 °F
Humidity 38%
Rainfall 0.00 in
Snow Depth Not available.
UV 7 out of 12
Pollen 8.60 out of 12
Air Quality Not available.
Flu Activity Not available.
METAR KBUR 032053Z 00000KT 10SM CLR 18/02 A2990 RMK AO2 SLP117 T01780022 58022

More Conditions Fewer Conditions

Pressure 29.88 in
Visibility 10.0 miles
Clouds Clear
Dew Point 41 °F
Humidity 38%
Rainfall 0.00 in
Snow Depth Not available.
UV 7 out of 12
Pollen 8.60 out of 12
Air Quality Not available.
Flu Activity Not available.
METAR KBUR 032053Z 00000KT 10SM CLR 18/02 A2990 RMK AO2 SLP117 T01780022 58022

More Conditions Fewer Conditions

10-Day Weather Forecast

Almanac

Astronomy

Mar. 03, 2015 Rise Set
Actual Time
Civil Twilight
Nautical Twilight
Astronomical Twilight
Moon
Length of Visible Light
Length of Day
Tomorrow will be .
, % of the Moon is Illuminated

Today's Extremes

State Highs State Lows

Community

WunderPhotos

Upload Photos

1,802,261 photos uploaded!

WunderBlogs® & News

Nearby

Air Quality

  Air Quality AQ Index Pollutant
Not available.

Snow Depth

Station Depth Elevation

Earthquake Activity

City Distance Mag. Time & Date
Minimum magnitude displayed is 2.5.

Coastal Water Temperatures

Place Temperature

Nearby Weather Stations